Arlington, TX (76003)

5:06 PM CDT on September 02, 2015 (GMT -0500)
APRSWXNET | | Change Station
CLOSE
Current Station
Personal Weather Station
Location: Arlington, TX
Elevation: 639 ft
Nearby Weather Stations

Elev 639 ft 32.65 °N, 97.17 °W | Updated 21 minutes ago

Mostly Cloudy
Mostly Cloudy
94 °F
Feels Like 99 °F
N
0
Wind Variable Wind from SW
Gusts 1.0 mph

Today
High -- | Low -- °F
--% Chance of Precip.
Yesterday
High -- | Low -- °F
Precip. -- in
7:03 AM 7:52 PM
Waning Gibbous, 77% visible
Pressure 29.92 in
Visibility 10.0 miles
Clouds Clear
Heat Index 99 °F
Dew Point 68 °F
Humidity 43%
Rainfall in
Snow Depth Not available.
UV 4 out of 12
Pollen 9.30 out of 12
Air Quality Not available.
Flu Activity Not available.
METAR KGKY 022153Z 14009KT 120V180 10SM CLR 34/16 A2995 RMK AO2 SLP132 T03440156
Pressure 29.92 in
Visibility 10.0 miles
Clouds Clear
Heat Index 99 °F
Dew Point 68 °F
Humidity 43%
Rainfall in
Snow Depth Not available.
UV 4 out of 12
Pollen 9.30 out of 12
Air Quality Not available.
Flu Activity Not available.
METAR KGKY 022153Z 14009KT 120V180 10SM CLR 34/16 A2995 RMK AO2 SLP132 T03440156
Nowcast | as of 3:57 PM CDT on September 2, 2015

Isolated showers and a few thunderstorms will develop this afternoon southeast of a line from Lampasas to Waxahachie to Sulphur Springs. Cloud to ground lightning...brief heavy rain and wind gusts over 35 mph will accompany some of the storms as they move north at 15 mph.

×

10-Day Weather Forecast

×

Almanac

Astronomy

Sep. 02, 2015 Rise Set
Actual Time
Civil Twilight
Nautical Twilight
Astronomical Twilight
Moon
Length of Visible Light
Length of Day
Tomorrow will be .
, % of the Moon is Illuminated

Today's Extremes

State Highs State Lows

Community

WunderPhotos

Upload Photos

1,851,821 photos uploaded!

WunderBlogs® & News

Nearby

Air Quality

  Air Quality AQ Index Pollutant
Not available.

Snow Depth

Station Depth Elevation

Earthquake Activity

City Distance Mag. Time & Date
Minimum magnitude displayed is 2.5.

Coastal Water Temperatures

Place Temperature

Stations

Nearby Weather Stations

Station Location Temp. Windchill Dew Point Humidity Wind Precip. Elev Updated Type